createdAt,value
2022-12-24T00:00:22.359Z,9.70
2022-12-24T00:02:50.231Z,9.70
2022-12-24T00:05:18.303Z,9.70
2022-12-24T00:07:46.102Z,9.60
2022-12-24T00:10:15.211Z,9.60
2022-12-24T00:12:42.987Z,9.60
2022-12-24T00:15:11.798Z,9.60
2022-12-24T00:17:39.552Z,9.60
2022-12-24T00:20:09.199Z,9.60
2022-12-24T00:22:37.021Z,9.60
2022-12-24T00:25:05.353Z,9.60
2022-12-24T00:27:34.537Z,9.60
2022-12-24T00:30:02.294Z,9.60
2022-12-24T00:32:30.087Z,9.50
2022-12-24T00:34:57.837Z,9.50
2022-12-24T00:37:25.615Z,9.50
2022-12-24T00:39:53.364Z,9.50
2022-12-24T00:42:21.646Z,9.50
2022-12-24T00:44:50.738Z,9.50
2022-12-24T00:47:18.522Z,9.40
2022-12-24T00:49:46.307Z,9.40
2022-12-24T00:52:14.121Z,9.40
2022-12-24T00:54:41.871Z,9.40
2022-12-24T00:57:09.701Z,9.40
2022-12-24T00:59:37.474Z,9.40
2022-12-24T01:02:06.739Z,9.40
2022-12-24T01:04:52.372Z,9.40
2022-12-24T01:07:20.151Z,9.30
2022-12-24T01:09:47.894Z,9.30
2022-12-24T01:12:15.677Z,9.30
2022-12-24T01:14:43.462Z,9.30
2022-12-24T01:17:12.552Z,9.30
2022-12-24T01:19:40.777Z,9.20
2022-12-24T01:22:08.525Z,9.20
2022-12-24T01:24:36.403Z,9.20
2022-12-24T01:27:04.162Z,9.20
2022-12-24T01:29:32.083Z,9.10
2022-12-24T01:31:59.877Z,9.10
2022-12-24T01:34:29.088Z,9.10
2022-12-24T01:36:56.838Z,9.10
2022-12-24T01:39:24.615Z,9.10
2022-12-24T01:42:10.375Z,9.00
2022-12-24T01:44:42.982Z,9.00
2022-12-24T01:47:14.905Z,9.00
2022-12-24T01:49:48.779Z,9.00
2022-12-24T01:52:20.170Z,9.00
2022-12-24T01:54:51.632Z,8.90
2022-12-24T01:57:23.182Z,9.00
2022-12-24T01:59:56.018Z,8.90
2022-12-24T02:02:24.183Z,8.90
2022-12-24T02:04:59.341Z,8.90
2022-12-24T02:07:27.108Z,8.90
2022-12-24T02:09:58.356Z,8.90
2022-12-24T02:12:26.912Z,8.90
2022-12-24T02:14:55.690Z,8.90
2022-12-24T02:17:30.339Z,8.90
2022-12-24T02:20:26.033Z,8.90
2022-12-24T02:23:16.470Z,8.90
2022-12-24T02:25:59.140Z,8.90
2022-12-24T02:28:43.333Z,8.90
2022-12-24T02:31:18.076Z,8.90
2022-12-24T02:33:50.968Z,8.90
2022-12-24T02:36:26.296Z,8.90
2022-12-24T02:39:01.431Z,8.90
2022-12-24T02:41:52.873Z,8.90
2022-12-24T02:44:23.207Z,8.90
2022-12-24T02:46:53.068Z,8.90
2022-12-24T02:49:20.856Z,8.90
2022-12-24T02:51:48.575Z,8.90
2022-12-24T02:54:16.468Z,8.90
2022-12-24T02:57:04.372Z,8.80
2022-12-24T02:59:57.979Z,8.80
2022-12-24T03:02:38.092Z,8.80
2022-12-24T03:05:17.510Z,8.80
2022-12-24T03:07:57.361Z,8.80
2022-12-24T03:10:29.550Z,8.80
2022-12-24T03:13:00.837Z,8.80
2022-12-24T03:15:30.531Z,8.90
2022-12-24T03:18:02.303Z,8.90
2022-12-24T03:20:34.685Z,8.90
2022-12-24T03:23:03.292Z,8.90
2022-12-24T03:25:31.602Z,8.90
2022-12-24T03:27:59.834Z,8.90
2022-12-24T03:30:27.847Z,8.90
2022-12-24T03:32:55.586Z,8.90
2022-12-24T03:35:24.698Z,8.90
2022-12-24T03:37:52.627Z,8.90
2022-12-24T03:40:20.429Z,8.90
2022-12-24T03:42:48.175Z,8.90
2022-12-24T03:45:15.975Z,8.90
2022-12-24T03:47:43.744Z,8.90
2022-12-24T03:50:11.566Z,8.80
2022-12-24T03:52:40.636Z,8.80
2022-12-24T03:55:09.092Z,8.80
2022-12-24T03:57:36.849Z,8.80
2022-12-24T04:00:05.397Z,8.80
2022-12-24T04:02:33.442Z,8.80
2022-12-24T04:05:01.180Z,8.80
2022-12-24T04:07:28.903Z,8.80
2022-12-24T04:09:57.981Z,8.80
2022-12-24T04:12:25.963Z,8.80
2022-12-24T04:14:53.702Z,8.80
2022-12-24T04:17:21.480Z,8.80
2022-12-24T04:19:49.215Z,8.80
2022-12-24T04:22:17.009Z,8.80
2022-12-24T04:24:44.756Z,8.80
2022-12-24T04:27:14.591Z,8.80
2022-12-24T04:29:42.280Z,8.80
2022-12-24T04:32:11.228Z,8.80
2022-12-24T04:34:38.942Z,8.80
2022-12-24T04:37:06.638Z,8.80
2022-12-24T04:39:34.346Z,8.70
2022-12-24T04:42:02.020Z,8.70
2022-12-24T04:44:31.052Z,8.70
2022-12-24T04:46:58.737Z,8.70
2022-12-24T04:49:26.543Z,8.70
2022-12-24T04:51:54.217Z,8.70
2022-12-24T04:54:21.900Z,8.70
2022-12-24T04:56:49.849Z,8.70
2022-12-24T04:59:17.565Z,8.70
2022-12-24T05:01:46.670Z,8.70
2022-12-24T05:04:14.458Z,8.70
2022-12-24T05:06:42.198Z,8.70
2022-12-24T05:09:09.889Z,8.70
2022-12-24T05:11:37.568Z,8.70
2022-12-24T05:14:05.441Z,8.70
2022-12-24T05:16:33.178Z,8.70
2022-12-24T05:19:02.232Z,8.70
2022-12-24T05:21:29.909Z,8.70
2022-12-24T05:24:15.498Z,8.70
2022-12-24T05:26:45.857Z,8.70
2022-12-24T05:29:13.884Z,8.70
2022-12-24T05:31:43.430Z,8.70
2022-12-24T05:34:13.580Z,8.70
2022-12-24T05:36:41.835Z,8.70
2022-12-24T05:39:15.320Z,8.70
2022-12-24T05:41:44.159Z,8.70
2022-12-24T05:44:11.899Z,8.70
2022-12-24T05:46:39.725Z,8.70
2022-12-24T05:49:07.658Z,8.70
2022-12-24T05:51:37.004Z,8.70
2022-12-24T05:54:05.775Z,8.70
2022-12-24T05:56:33.663Z,8.70
2022-12-24T05:59:01.509Z,8.70
2022-12-24T06:01:29.550Z,8.70
2022-12-24T06:03:58.345Z,8.70
2022-12-24T06:06:28.744Z,8.70
2022-12-24T06:08:58.118Z,8.70
2022-12-24T06:11:28.146Z,8.70
2022-12-24T06:13:55.934Z,8.70
2022-12-24T06:16:25.318Z,8.70
2022-12-24T06:18:53.397Z,8.70
2022-12-24T06:21:21.402Z,8.70
2022-12-24T06:23:49.108Z,8.70
2022-12-24T06:26:20.678Z,8.70
2022-12-24T06:28:49.367Z,8.70
2022-12-24T06:31:19.582Z,8.70
2022-12-24T06:33:47.516Z,8.70
2022-12-24T06:36:18.251Z,8.70
2022-12-24T06:38:46.541Z,8.70
2022-12-24T06:41:14.496Z,8.70
2022-12-24T06:43:46.712Z,8.70
2022-12-24T06:46:15.116Z,8.70
2022-12-24T06:48:44.546Z,8.70
2022-12-24T06:51:12.659Z,8.70
2022-12-24T06:53:41.044Z,8.70
2022-12-24T06:56:10.957Z,8.70
2022-12-24T06:58:39.110Z,8.60
2022-12-24T07:01:10.228Z,8.70
2022-12-24T07:03:38.043Z,8.70
2022-12-24T07:06:06.488Z,8.70
2022-12-24T07:08:36.144Z,8.70
2022-12-24T07:11:03.971Z,8.70
2022-12-24T07:13:33.058Z,8.70
2022-12-24T07:16:01.497Z,8.60
2022-12-24T07:18:31.031Z,8.70
2022-12-24T07:20:58.829Z,8.70
2022-12-24T07:23:26.763Z,8.60
2022-12-24T07:25:54.494Z,8.60
2022-12-24T07:28:27.561Z,8.70
2022-12-24T07:30:55.972Z,8.60
2022-12-24T07:33:24.044Z,8.60
2022-12-24T07:36:00.976Z,8.60
2022-12-24T07:38:29.660Z,8.60
2022-12-24T07:40:57.577Z,8.60
2022-12-24T07:43:25.423Z,8.60
2022-12-24T07:45:56.495Z,8.60
2022-12-24T07:48:24.494Z,8.60
2022-12-24T07:50:52.701Z,8.60
2022-12-24T07:53:21.947Z,8.60
2022-12-24T07:55:49.829Z,8.60
2022-12-24T07:58:17.784Z,8.60
2022-12-24T08:00:45.538Z,8.60
2022-12-24T08:03:17.667Z,8.60
2022-12-24T08:05:45.968Z,8.60
2022-12-24T08:08:14.296Z,8.60
2022-12-24T08:10:45.285Z,8.60
2022-12-24T08:13:13.239Z,8.60
2022-12-24T08:15:41.133Z,8.50
2022-12-24T08:18:08.919Z,8.50
2022-12-24T08:20:38.879Z,8.60
2022-12-24T08:23:06.882Z,8.50
2022-12-24T08:25:34.651Z,8.50
2022-12-24T08:28:03.802Z,8.50
2022-12-24T08:30:31.617Z,8.50
2022-12-24T08:32:59.327Z,8.50
2022-12-24T08:35:27.317Z,8.60
2022-12-24T08:37:55.051Z,8.60
2022-12-24T08:40:22.803Z,8.60
2022-12-24T08:42:50.599Z,8.60
2022-12-24T08:45:20.519Z,8.60
2022-12-24T08:47:48.219Z,8.60
2022-12-24T08:50:16.158Z,8.60
2022-12-24T08:52:43.905Z,8.60
2022-12-24T08:55:11.634Z,8.70
2022-12-24T08:57:39.380Z,8.70
2022-12-24T09:00:08.572Z,8.70
2022-12-24T09:02:37.713Z,8.70
2022-12-24T09:05:06.206Z,8.70
2022-12-24T09:07:33.952Z,8.70
2022-12-24T09:10:01.780Z,8.70
2022-12-24T09:12:29.857Z,8.70
2022-12-24T09:15:03.241Z,8.60
2022-12-24T09:17:32.140Z,8.80
2022-12-24T09:20:01.228Z,8.80
2022-12-24T09:22:28.925Z,8.80
2022-12-24T09:24:56.647Z,8.80
2022-12-24T09:27:24.411Z,8.80
2022-12-24T09:29:52.158Z,8.80
2022-12-24T09:32:19.933Z,8.80
2022-12-24T09:34:47.829Z,8.80
2022-12-24T09:37:17.087Z,8.80
2022-12-24T09:39:44.828Z,8.80
2022-12-24T09:42:27.139Z,8.80
2022-12-24T09:45:01.210Z,8.80
2022-12-24T09:47:39.538Z,8.90
2022-12-24T09:50:31.410Z,8.90
2022-12-24T09:53:03.776Z,8.90
2022-12-24T09:55:34.895Z,8.90
2022-12-24T09:58:05.874Z,8.90
2022-12-24T10:00:37.918Z,8.90
2022-12-24T10:03:15.311Z,9.00
2022-12-24T10:05:47.561Z,9.00
2022-12-24T10:08:25.220Z,9.00
2022-12-24T10:10:55.279Z,9.00
2022-12-24T10:13:38.268Z,9.00
2022-12-24T10:16:17.164Z,9.00
2022-12-24T10:18:56.919Z,9.00
2022-12-24T10:21:33.399Z,9.10
2022-12-24T10:24:08.795Z,9.10
2022-12-24T10:26:44.620Z,9.10
2022-12-24T10:29:16.378Z,9.10
2022-12-24T10:31:53.881Z,9.10
2022-12-24T10:34:24.754Z,9.20
2022-12-24T10:36:52.498Z,9.20
2022-12-24T10:39:23.777Z,9.20
2022-12-24T10:41:55.162Z,9.20
2022-12-24T10:44:26.122Z,9.20
2022-12-24T10:46:53.937Z,9.20
2022-12-24T10:49:32.917Z,9.20
2022-12-24T10:52:05.332Z,9.20
2022-12-24T10:54:39.270Z,9.20
2022-12-24T10:57:23.748Z,9.20
2022-12-24T10:59:54.694Z,9.20
2022-12-24T11:02:31.476Z,9.20
2022-12-24T11:05:00.888Z,9.20
2022-12-24T11:07:30.119Z,9.30
2022-12-24T11:10:00.495Z,9.30
2022-12-24T11:12:32.390Z,9.30
2022-12-24T11:15:05.497Z,9.30
2022-12-24T11:17:34.581Z,9.30
2022-12-24T11:20:03.966Z,9.30
2022-12-24T11:22:33.431Z,9.40
2022-12-24T11:25:09.501Z,9.40
2022-12-24T11:27:42.536Z,9.40
2022-12-24T11:30:24.197Z,9.50
2022-12-24T11:33:08.935Z,9.50
2022-12-24T11:35:43.286Z,9.50
2022-12-24T11:38:12.969Z,9.50
2022-12-24T11:40:44.017Z,9.50
2022-12-24T11:43:17.554Z,9.50
2022-12-24T11:45:50.775Z,9.60
2022-12-24T11:48:30.133Z,9.60
2022-12-24T11:50:59.679Z,9.60
2022-12-24T11:53:35.440Z,9.60
2022-12-24T11:56:09.078Z,9.60
2022-12-24T11:58:42.001Z,9.70
2022-12-24T12:01:18.424Z,9.70
2022-12-24T12:03:50.327Z,9.70
2022-12-24T12:06:32.376Z,9.80
2022-12-24T12:09:04.147Z,9.80
2022-12-24T12:11:35.321Z,9.80
2022-12-24T12:14:04.914Z,9.90
2022-12-24T12:16:55.087Z,10.00
2022-12-24T12:19:25.737Z,10.00
2022-12-24T12:21:53.690Z,10.10
2022-12-24T12:24:31.818Z,10.10
2022-12-24T12:27:11.867Z,10.10
2022-12-24T12:29:46.979Z,10.20
2022-12-24T12:32:23.697Z,10.20
2022-12-24T12:35:01.433Z,10.20
2022-12-24T12:37:34.358Z,10.20
2022-12-24T12:40:02.155Z,10.20
2022-12-24T12:42:34.828Z,10.20
2022-12-24T12:45:38.142Z,10.20
2022-12-24T12:48:21.631Z,10.10
2022-12-24T12:50:54.873Z,10.10
2022-12-24T12:53:39.133Z,10.10
2022-12-24T12:56:23.796Z,10.10
2022-12-24T12:58:56.442Z,10.10
2022-12-24T13:01:32.863Z,10.10
2022-12-24T13:04:23.344Z,10.10
2022-12-24T13:07:17.933Z,10.20
2022-12-24T13:10:06.107Z,10.20
2022-12-24T13:13:04.329Z,10.30
2022-12-24T13:15:58.093Z,10.30
2022-12-24T13:18:45.185Z,10.30
2022-12-24T13:21:19.326Z,10.30
2022-12-24T13:23:47.070Z,10.30
2022-12-24T13:26:15.704Z,10.30
2022-12-24T13:28:44.322Z,10.30
2022-12-24T13:31:29.925Z,10.30
2022-12-24T13:34:03.006Z,10.20
2022-12-24T13:37:02.052Z,10.20
2022-12-24T13:39:29.797Z,10.20
2022-12-24T13:41:57.578Z,10.10
2022-12-24T13:44:34.618Z,10.10
2022-12-24T13:47:25.459Z,10.00
2022-12-24T13:49:56.701Z,10.00
2022-12-24T13:52:30.053Z,9.90
2022-12-24T13:55:16.046Z,9.90
2022-12-24T13:57:48.238Z,9.90
2022-12-24T14:00:38.077Z,9.80
2022-12-24T14:03:22.735Z,9.80
2022-12-24T14:05:53.980Z,9.80
2022-12-24T14:08:31.128Z,9.70
2022-12-24T14:11:05.667Z,9.70
2022-12-24T14:14:15.811Z,9.70
2022-12-24T14:16:46.859Z,9.70
2022-12-24T14:19:20.046Z,9.70
2022-12-24T14:21:55.694Z,9.70
2022-12-24T14:24:26.187Z,9.70
2022-12-24T14:26:57.276Z,9.80
2022-12-24T14:29:29.492Z,9.80
2022-12-24T14:31:59.536Z,9.80
2022-12-24T14:34:28.600Z,9.80
2022-12-24T14:36:57.501Z,9.90
2022-12-24T14:39:31.539Z,9.90
2022-12-24T14:42:07.408Z,9.90
2022-12-24T14:44:42.863Z,9.90
2022-12-24T14:47:22.666Z,9.90
2022-12-24T14:50:26.041Z,9.90
2022-12-24T14:53:07.268Z,9.90
2022-12-24T14:55:41.901Z,9.80
2022-12-24T14:58:24.868Z,9.80
2022-12-24T15:00:54.372Z,9.80
2022-12-24T15:03:24.559Z,9.70
2022-12-24T15:05:56.294Z,9.70
2022-12-24T15:08:29.829Z,9.60
2022-12-24T15:11:02.858Z,9.60
2022-12-24T15:13:36.751Z,9.50
2022-12-24T15:16:06.621Z,9.50
2022-12-24T15:18:36.588Z,9.50
2022-12-24T15:21:08.615Z,9.50
2022-12-24T15:23:38.251Z,9.40
2022-12-24T15:26:16.201Z,9.40
2022-12-24T15:28:44.236Z,9.40
2022-12-24T15:31:14.359Z,9.30
2022-12-24T15:33:44.806Z,9.30
2022-12-24T15:36:15.144Z,9.30
2022-12-24T15:38:44.743Z,9.30
2022-12-24T15:41:19.347Z,9.20
2022-12-24T15:43:48.321Z,9.20
2022-12-24T15:46:23.909Z,9.20
2022-12-24T15:48:53.429Z,9.10
2022-12-24T15:51:28.800Z,9.10
2022-12-24T15:54:00.120Z,9.10
2022-12-24T15:56:36.770Z,9.10
2022-12-24T15:59:24.397Z,9.00
2022-12-24T16:01:52.569Z,9.00
2022-12-24T16:04:24.849Z,9.00
2022-12-24T16:06:56.238Z,8.90
2022-12-24T16:09:41.642Z,8.90
2022-12-24T16:12:18.491Z,8.90
2022-12-24T16:14:52.527Z,8.80
2022-12-24T16:17:22.847Z,8.80
2022-12-24T16:19:54.791Z,8.80
2022-12-24T16:22:35.172Z,8.80
2022-12-24T16:25:22.814Z,8.70
2022-12-24T16:27:50.610Z,8.70
2022-12-24T16:30:18.619Z,8.70
2022-12-24T16:32:47.841Z,8.60
2022-12-24T16:35:24.531Z,8.60
2022-12-24T16:37:53.681Z,8.60
2022-12-24T16:40:26.801Z,8.60
2022-12-24T16:43:12.857Z,8.60
2022-12-24T16:45:40.653Z,8.50
2022-12-24T16:48:09.379Z,8.50
2022-12-24T16:50:37.425Z,8.50
2022-12-24T16:53:06.425Z,8.40
2022-12-24T16:55:34.114Z,8.40
2022-12-24T16:58:01.805Z,8.40
2022-12-24T17:00:29.502Z,8.30
2022-12-24T17:02:57.381Z,8.30
2022-12-24T17:05:25.400Z,8.20
2022-12-24T17:07:53.111Z,8.20
2022-12-24T17:10:22.200Z,8.20
2022-12-24T17:12:49.899Z,8.10
2022-12-24T17:15:17.625Z,8.00
2022-12-24T17:17:45.348Z,8.00
2022-12-24T17:20:16.686Z,7.90
2022-12-24T17:22:46.722Z,7.90
2022-12-24T17:25:15.276Z,7.90
2022-12-24T17:27:44.387Z,7.80
2022-12-24T17:30:12.728Z,7.80
2022-12-24T17:32:40.448Z,7.80
2022-12-24T17:35:09.519Z,7.70
2022-12-24T17:37:37.227Z,7.70
2022-12-24T17:40:05.863Z,7.70
2022-12-24T17:42:33.568Z,7.70
2022-12-24T17:45:02.585Z,7.60
2022-12-24T17:47:31.194Z,7.60
2022-12-24T17:49:59.285Z,7.60
2022-12-24T17:52:27.003Z,7.60
2022-12-24T17:54:54.781Z,7.60
2022-12-24T17:57:22.527Z,7.60
2022-12-24T17:59:50.241Z,7.60
2022-12-24T18:02:19.359Z,7.50
2022-12-24T18:04:47.311Z,7.50
2022-12-24T18:07:14.982Z,7.50
2022-12-24T18:09:45.023Z,7.50
2022-12-24T18:12:12.985Z,7.40
2022-12-24T18:14:40.716Z,7.40
2022-12-24T18:17:08.451Z,7.40
2022-12-24T18:19:37.497Z,7.40
2022-12-24T18:22:05.263Z,7.30
2022-12-24T18:24:33.002Z,7.30
2022-12-24T18:27:02.606Z,7.30
2022-12-24T18:29:30.303Z,7.30
2022-12-24T18:31:58.064Z,7.20
2022-12-24T18:34:25.770Z,7.20
2022-12-24T18:36:55.800Z,7.20
2022-12-24T18:39:24.011Z,7.10
2022-12-24T18:41:51.771Z,7.10
2022-12-24T18:44:24.969Z,7.10
2022-12-24T18:46:53.367Z,7.10
2022-12-24T18:49:21.157Z,7.00
2022-12-24T18:51:48.886Z,7.00
2022-12-24T18:54:17.923Z,7.00
2022-12-24T18:56:45.636Z,7.00
2022-12-24T18:59:13.435Z,7.00
2022-12-24T19:01:41.371Z,6.90
2022-12-24T19:04:10.288Z,6.90
2022-12-24T19:06:38.094Z,6.90
2022-12-24T19:09:05.996Z,6.90
2022-12-24T19:11:36.486Z,6.90
2022-12-24T19:14:06.062Z,6.90
2022-12-24T19:16:36.462Z,6.90
2022-12-24T19:19:05.641Z,6.90
2022-12-24T19:21:33.601Z,6.90
2022-12-24T19:24:01.386Z,6.80
2022-12-24T19:26:29.105Z,6.80
2022-12-24T19:28:58.140Z,6.90
2022-12-24T19:31:27.050Z,6.90
2022-12-24T19:33:56.792Z,6.90
2022-12-24T19:36:26.452Z,6.90
2022-12-24T19:38:54.191Z,6.90
2022-12-24T19:41:23.787Z,6.90
2022-12-24T19:43:55.417Z,6.90
2022-12-24T19:46:26.098Z,6.90
2022-12-24T19:48:56.141Z,6.90
2022-12-24T19:51:25.176Z,6.90
2022-12-24T19:53:54.355Z,6.90
2022-12-24T19:56:23.854Z,6.90
2022-12-24T19:58:51.849Z,6.90
2022-12-24T20:01:21.318Z,6.90
2022-12-24T20:03:51.643Z,6.90
2022-12-24T20:06:21.815Z,6.90
2022-12-24T20:08:49.701Z,6.90
2022-12-24T20:11:19.520Z,6.90
2022-12-24T20:13:47.344Z,6.90
2022-12-24T20:16:17.209Z,6.80
2022-12-24T20:18:45.184Z,6.80
2022-12-24T20:21:14.255Z,6.80
2022-12-24T20:23:42.121Z,6.80
2022-12-24T20:26:14.059Z,6.80
2022-12-24T20:28:41.922Z,6.80
2022-12-24T20:31:12.505Z,6.80
2022-12-24T20:33:40.509Z,6.80
2022-12-24T20:36:08.959Z,6.70
2022-12-24T20:38:38.502Z,6.70
2022-12-24T20:41:09.503Z,6.70
2022-12-24T20:43:44.988Z,6.70
2022-12-24T20:46:15.188Z,6.70
2022-12-24T20:48:43.096Z,6.70
2022-12-24T20:51:17.699Z,6.70
2022-12-24T20:53:52.594Z,6.70
2022-12-24T20:56:20.348Z,6.70
2022-12-24T20:58:48.655Z,6.70
2022-12-24T21:01:19.221Z,6.70
2022-12-24T21:03:47.390Z,6.70
2022-12-24T21:06:17.715Z,6.60
2022-12-24T21:08:46.001Z,6.60
2022-12-24T21:11:28.990Z,6.60
2022-12-24T21:13:56.753Z,6.60
2022-12-24T21:16:24.575Z,6.50
2022-12-24T21:18:52.313Z,6.50
2022-12-24T21:21:20.061Z,6.50
2022-12-24T21:23:47.775Z,6.40
2022-12-24T21:26:16.831Z,6.40
2022-12-24T21:28:45.321Z,6.40
2022-12-24T21:31:15.148Z,6.40
2022-12-24T21:33:43.555Z,6.30
2022-12-24T21:36:12.010Z,6.30
2022-12-24T21:38:39.835Z,6.30
2022-12-24T21:41:09.545Z,6.30
2022-12-24T21:43:39.139Z,6.30
2022-12-24T21:46:08.800Z,6.40
2022-12-24T21:48:54.832Z,6.40
2022-12-24T21:51:24.171Z,6.40
2022-12-24T21:54:09.651Z,6.40
2022-12-24T21:56:57.426Z,6.40
2022-12-24T21:59:27.069Z,6.40
2022-12-24T22:01:55.686Z,6.40
2022-12-24T22:04:23.747Z,6.40
2022-12-24T22:07:08.999Z,6.40
2022-12-24T22:09:55.512Z,6.50
2022-12-24T22:12:23.252Z,6.50
2022-12-24T22:14:52.662Z,6.50
2022-12-24T22:17:24.982Z,6.40
2022-12-24T22:19:53.251Z,6.40
2022-12-24T22:22:21.057Z,6.50
2022-12-24T22:24:48.797Z,6.50
2022-12-24T22:27:16.544Z,6.50
2022-12-24T22:29:44.450Z,6.50
2022-12-24T22:32:13.461Z,6.50
2022-12-24T22:34:41.167Z,6.50
2022-12-24T22:37:08.938Z,6.50
2022-12-24T22:39:36.692Z,6.50
2022-12-24T22:42:04.458Z,6.50
2022-12-24T22:44:32.167Z,6.50
2022-12-24T22:46:59.844Z,6.50
2022-12-24T22:49:28.921Z,6.50
2022-12-24T22:51:57.780Z,6.60
2022-12-24T22:54:25.968Z,6.60
2022-12-24T22:56:53.675Z,6.60
2022-12-24T22:59:21.504Z,6.60
2022-12-24T23:01:52.212Z,6.70
2022-12-24T23:04:20.115Z,6.70
2022-12-24T23:06:49.160Z,6.70
2022-12-24T23:09:17.837Z,6.70
2022-12-24T23:11:45.915Z,6.70
2022-12-24T23:14:35.141Z,6.80
2022-12-24T23:17:02.907Z,6.80
2022-12-24T23:19:31.934Z,6.80
2022-12-24T23:22:01.145Z,6.80
2022-12-24T23:24:28.918Z,6.80
2022-12-24T23:26:57.175Z,6.80
2022-12-24T23:29:25.004Z,6.80
2022-12-24T23:31:52.686Z,6.80
2022-12-24T23:34:20.425Z,6.80
2022-12-24T23:36:48.148Z,6.80
2022-12-24T23:39:17.186Z,6.80
2022-12-24T23:41:45.012Z,6.70
2022-12-24T23:44:12.730Z,6.70
2022-12-24T23:46:40.473Z,6.70
2022-12-24T23:49:08.269Z,6.70
2022-12-24T23:51:35.948Z,6.70
2022-12-24T23:54:03.680Z,6.70
2022-12-24T23:56:32.711Z,6.70
2022-12-24T23:59:00.402Z,6.70
